createdAt,value
2019-05-13T00:01:53.967Z,4.56
2019-05-13T00:04:24.196Z,4.52
2019-05-13T00:06:55.150Z,4.52
2019-05-13T00:09:24.530Z,4.50
2019-05-13T00:11:54.085Z,4.51
2019-05-13T00:14:23.988Z,4.49
2019-05-13T00:16:53.673Z,4.46
2019-05-13T00:19:23.315Z,4.46
2019-05-13T00:21:51.877Z,4.46
2019-05-13T00:24:20.277Z,4.44
2019-05-13T00:26:49.006Z,4.45
2019-05-13T00:29:17.830Z,4.45
2019-05-13T00:31:46.243Z,4.42
2019-05-13T00:34:14.664Z,4.41
2019-05-13T00:36:44.536Z,4.43
2019-05-13T00:39:15.343Z,4.42
2019-05-13T00:41:44.273Z,4.43
2019-05-13T00:44:14.267Z,4.38
2019-05-13T00:46:44.136Z,4.38
2019-05-13T00:49:13.440Z,4.38
2019-05-13T00:51:44.230Z,4.38
2019-05-13T00:54:13.306Z,4.32
2019-05-13T00:56:43.588Z,4.40
2019-05-13T00:59:14.146Z,4.39
2019-05-13T01:01:44.070Z,4.40
2019-05-13T01:04:14.387Z,4.40
2019-05-13T01:06:43.642Z,4.41
2019-05-13T01:09:14.463Z,4.41
2019-05-13T01:11:43.775Z,4.43
2019-05-13T01:14:14.302Z,4.43
2019-05-13T01:16:44.281Z,4.43
2019-05-13T01:19:14.404Z,4.44
2019-05-13T01:21:43.501Z,4.43
2019-05-13T01:24:14.207Z,4.42
2019-05-13T01:26:43.847Z,4.39
2019-05-13T01:29:13.451Z,4.40
2019-05-13T01:31:43.490Z,4.37
2019-05-13T01:34:14.063Z,4.34
2019-05-13T01:36:44.468Z,4.33
2019-05-13T01:39:13.872Z,4.32
2019-05-13T01:41:43.853Z,4.30
2019-05-13T01:44:13.984Z,4.29
2019-05-13T01:46:43.681Z,4.29
2019-05-13T01:49:13.646Z,4.26
2019-05-13T01:51:44.003Z,4.24
2019-05-13T01:54:14.218Z,4.23
2019-05-13T01:56:44.099Z,4.22
2019-05-13T01:59:15.031Z,4.19
2019-05-13T02:01:44.218Z,4.16
2019-05-13T02:04:14.223Z,4.13
2019-05-13T02:06:44.310Z,4.12
2019-05-13T02:09:14.152Z,4.10
2019-05-13T02:11:44.532Z,4.08
2019-05-13T02:14:13.368Z,4.07
2019-05-13T02:16:44.388Z,4.08
2019-05-13T02:19:14.148Z,4.04
2019-05-13T02:21:43.894Z,4.03
2019-05-13T02:24:14.500Z,3.97
2019-05-13T02:26:43.679Z,3.93
2019-05-13T02:29:14.409Z,3.87
2019-05-13T02:31:51.157Z,3.81
2019-05-13T02:34:13.752Z,3.76
2019-05-13T02:36:43.882Z,3.70
2019-05-13T02:39:13.145Z,3.65
2019-05-13T02:41:43.239Z,3.62
2019-05-13T02:44:12.449Z,3.56
2019-05-13T02:46:44.002Z,3.52
2019-05-13T02:49:12.227Z,3.47
2019-05-13T02:51:42.890Z,3.43
2019-05-13T02:54:12.391Z,3.38
2019-05-13T02:56:42.226Z,3.32
2019-05-13T02:59:13.137Z,3.29
2019-05-13T03:01:43.173Z,3.29
2019-05-13T03:04:13.148Z,3.29
2019-05-13T03:06:43.556Z,3.26
2019-05-13T03:09:12.725Z,3.22
2019-05-13T03:11:42.332Z,3.20
2019-05-13T03:14:12.826Z,3.17
2019-05-13T03:16:52.744Z,3.15
2019-05-13T03:19:22.538Z,3.11
2019-05-13T03:21:52.413Z,3.08
2019-05-13T03:24:22.743Z,3.07
2019-05-13T03:26:53.288Z,3.06
2019-05-13T03:29:22.451Z,3.10
2019-05-13T03:31:55.852Z,3.11
2019-05-13T03:34:26.619Z,3.16
2019-05-13T03:36:56.645Z,3.19
2019-05-13T03:39:23.346Z,3.22
2019-05-13T03:41:53.728Z,3.27
2019-05-13T03:44:24.011Z,3.30
2019-05-13T03:46:54.483Z,3.34
2019-05-13T03:49:25.948Z,3.35
2019-05-13T03:51:54.766Z,3.36
2019-05-13T03:54:23.618Z,3.38
2019-05-13T03:56:53.188Z,3.41
2019-05-13T03:59:22.637Z,3.45
2019-05-13T04:01:52.524Z,3.51
2019-05-13T04:04:23.410Z,3.53
2019-05-13T04:06:53.056Z,3.56
2019-05-13T04:09:30.166Z,3.57
2019-05-13T04:11:52.737Z,3.58
2019-05-13T04:14:22.855Z,3.59
2019-05-13T04:16:54.376Z,3.61
2019-05-13T04:19:23.466Z,3.65
2019-05-13T04:21:52.872Z,3.67
2019-05-13T04:24:23.056Z,3.68
2019-05-13T04:26:53.379Z,3.68
2019-05-13T04:29:23.327Z,3.68
2019-05-13T04:31:53.219Z,3.67
2019-05-13T04:34:23.030Z,3.67
2019-05-13T04:36:52.100Z,3.68
2019-05-13T04:39:40.544Z,3.66
2019-05-13T04:41:52.853Z,3.62
2019-05-13T04:44:24.051Z,3.59
2019-05-13T04:46:52.359Z,3.54
2019-05-13T04:49:23.213Z,3.51
2019-05-13T04:51:52.388Z,3.53
2019-05-13T04:54:22.586Z,3.51
2019-05-13T04:56:52.476Z,3.55
2019-05-13T04:59:22.729Z,3.57
2019-05-13T05:02:17.178Z,3.59
2019-05-13T05:04:52.419Z,3.61
2019-05-13T05:07:42.070Z,3.67
2019-05-13T05:10:51.112Z,3.67
2019-05-13T05:13:37.120Z,3.71
2019-05-13T05:16:44.586Z,3.76
2019-05-13T05:19:44.898Z,3.80
2019-05-13T05:22:33.207Z,3.95
2019-05-13T05:25:13.617Z,4.11
2019-05-13T05:28:11.163Z,4.26
2019-05-13T05:30:51.944Z,4.37
2019-05-13T05:33:55.197Z,4.48
2019-05-13T05:36:41.541Z,4.54
2019-05-13T05:39:24.089Z,4.62
2019-05-13T05:41:55.071Z,4.71
2019-05-13T05:44:26.999Z,4.86
2019-05-13T05:46:58.449Z,5.02
2019-05-13T05:49:27.885Z,5.15
2019-05-13T05:52:02.577Z,5.35
2019-05-13T05:54:33.818Z,5.46
2019-05-13T05:57:03.956Z,5.63
2019-05-13T05:59:32.878Z,5.73
2019-05-13T06:02:02.279Z,5.97
2019-05-13T06:04:32.491Z,6.03
2019-05-13T06:07:03.365Z,6.01
2019-05-13T06:09:32.343Z,6.02
2019-05-13T06:12:01.812Z,5.93
2019-05-13T06:14:32.759Z,6.00
2019-05-13T06:17:02.703Z,5.97
2019-05-13T06:19:32.164Z,6.08
2019-05-13T06:22:02.325Z,6.16
2019-05-13T06:24:31.601Z,6.15
2019-05-13T06:27:01.630Z,6.24
2019-05-13T06:29:31.603Z,6.33
2019-05-13T06:32:15.143Z,6.32
2019-05-13T06:34:32.695Z,6.43
2019-05-13T06:37:01.944Z,6.50
2019-05-13T06:39:31.653Z,6.46
2019-05-13T06:42:02.706Z,6.53
2019-05-13T06:44:31.729Z,6.65
2019-05-13T06:47:02.455Z,6.70
2019-05-13T06:49:32.342Z,6.85
2019-05-13T06:52:01.735Z,6.93
2019-05-13T06:54:32.866Z,6.88
2019-05-13T06:57:04.393Z,6.75
2019-05-13T06:59:31.756Z,6.75
2019-05-13T07:02:02.242Z,6.77
2019-05-13T07:04:32.624Z,6.78
2019-05-13T07:07:09.828Z,6.93
2019-05-13T07:09:32.285Z,7.05
2019-05-13T07:12:03.251Z,7.16
2019-05-13T07:14:32.355Z,7.32
2019-05-13T07:17:02.181Z,7.38
2019-05-13T07:19:32.392Z,7.41
2019-05-13T07:22:02.687Z,7.34
2019-05-13T07:24:32.414Z,7.52
2019-05-13T07:27:01.780Z,7.69
2019-05-13T07:29:32.482Z,7.91
2019-05-13T07:32:01.702Z,8.10
2019-05-13T07:34:33.529Z,8.08
2019-05-13T07:37:02.127Z,8.07
2019-05-13T07:39:32.683Z,8.12
2019-05-13T07:42:05.321Z,8.06
2019-05-13T07:44:32.614Z,8.12
2019-05-13T07:47:03.458Z,8.06
2019-05-13T07:49:31.877Z,8.12
2019-05-13T07:52:01.615Z,8.09
2019-05-13T07:54:32.900Z,8.01
2019-05-13T07:57:01.894Z,8.14
2019-05-13T07:59:31.864Z,8.31
2019-05-13T08:02:02.190Z,8.48
2019-05-13T08:04:33.439Z,8.82
2019-05-13T08:07:02.089Z,8.91
2019-05-13T08:09:31.850Z,8.72
2019-05-13T08:12:09.883Z,8.77
2019-05-13T08:14:32.929Z,8.63
2019-05-13T08:17:02.591Z,8.59
2019-05-13T08:19:32.660Z,8.29
2019-05-13T08:22:02.253Z,8.16
2019-05-13T08:24:31.637Z,8.14
2019-05-13T08:27:02.217Z,8.27
2019-05-13T08:29:32.687Z,8.35
2019-05-13T08:32:02.733Z,8.59
2019-05-13T08:34:32.888Z,8.94
2019-05-13T08:37:02.981Z,9.22
2019-05-13T08:39:35.777Z,9.44
2019-05-13T08:42:12.758Z,9.56
2019-05-13T08:44:32.226Z,9.80
2019-05-13T08:47:03.018Z,9.96
2019-05-13T08:49:32.543Z,10.07
2019-05-13T08:52:01.795Z,10.10
2019-05-13T08:54:32.800Z,10.15
2019-05-13T08:57:02.975Z,10.31
2019-05-13T08:59:32.159Z,10.27
2019-05-13T09:02:03.063Z,10.27
2019-05-13T09:04:31.594Z,10.32
2019-05-13T09:07:02.115Z,10.36
2019-05-13T09:09:31.726Z,10.54
2019-05-13T09:12:02.503Z,10.57
2019-05-13T09:14:32.455Z,10.27
2019-05-13T09:17:01.878Z,10.36
2019-05-13T09:19:32.190Z,10.44
2019-05-13T09:22:02.869Z,10.24
2019-05-13T09:24:37.133Z,10.12
2019-05-13T09:27:02.130Z,10.25
2019-05-13T09:29:32.190Z,10.39
2019-05-13T09:32:03.905Z,10.37
2019-05-13T09:34:32.859Z,10.32
2019-05-13T09:37:02.839Z,10.72
2019-05-13T09:39:32.456Z,10.86
2019-05-13T09:42:02.663Z,11.03
2019-05-13T09:44:32.697Z,10.98
2019-05-13T09:47:02.597Z,10.70
2019-05-13T09:49:33.372Z,10.25
2019-05-13T09:52:01.957Z,9.80
2019-05-13T09:54:32.885Z,9.88
2019-05-13T09:57:01.799Z,10.19
2019-05-13T09:59:31.801Z,10.41
2019-05-13T10:02:03.146Z,10.44
2019-05-13T10:04:31.798Z,10.17
2019-05-13T10:07:02.259Z,10.01
2019-05-13T10:09:32.585Z,10.16
2019-05-13T10:12:03.277Z,9.94
2019-05-13T10:14:32.716Z,9.85
2019-05-13T10:17:06.203Z,9.60
2019-05-13T10:19:32.554Z,9.62
2019-05-13T10:22:01.499Z,9.44
2019-05-13T10:24:32.469Z,9.37
2019-05-13T10:27:02.330Z,9.33
2019-05-13T10:29:32.251Z,9.20
2019-05-13T10:32:02.671Z,9.30
2019-05-13T10:34:32.146Z,9.41
2019-05-13T10:37:02.231Z,9.53
2019-05-13T10:39:31.108Z,9.60
2019-05-13T10:41:59.483Z,9.48
2019-05-13T10:44:27.877Z,9.48
2019-05-13T10:46:56.261Z,9.29
2019-05-13T10:49:24.653Z,9.05
2019-05-13T10:51:53.047Z,9.03
2019-05-13T10:54:21.843Z,9.01
2019-05-13T10:56:52.728Z,8.99
2019-05-13T10:59:22.902Z,9.01
2019-05-13T11:01:51.172Z,9.06
2019-05-13T11:04:22.038Z,9.28
2019-05-13T11:06:52.194Z,9.32
2019-05-13T11:09:21.839Z,9.39
2019-05-13T11:11:52.827Z,9.44
2019-05-13T11:14:22.017Z,9.64
2019-05-13T11:16:52.374Z,9.52
2019-05-13T11:19:23.202Z,9.45
2019-05-13T11:21:51.464Z,9.49
2019-05-13T11:24:22.110Z,9.39
2019-05-13T11:26:52.243Z,9.19
2019-05-13T11:29:22.882Z,8.94
2019-05-13T11:31:52.429Z,8.91
2019-05-13T11:34:22.064Z,8.96
2019-05-13T11:36:53.262Z,8.95
2019-05-13T11:39:21.912Z,9.01
2019-05-13T11:41:50.659Z,9.16
2019-05-13T11:44:19.039Z,9.34
2019-05-13T11:46:47.434Z,9.34
2019-05-13T11:49:15.821Z,9.35
2019-05-13T11:51:44.780Z,9.28
2019-05-13T11:54:13.926Z,9.22
2019-05-13T11:56:49.175Z,9.14
2019-05-13T11:59:14.065Z,8.91
2019-05-13T12:01:43.099Z,8.97
2019-05-13T12:04:11.785Z,8.97
2019-05-13T12:06:47.976Z,8.88
2019-05-13T12:09:13.094Z,8.98
2019-05-13T12:11:41.165Z,9.08
2019-05-13T12:14:34.709Z,9.27
2019-05-13T12:16:42.292Z,9.30
2019-05-13T12:19:11.852Z,9.56
2019-05-13T12:21:44.491Z,9.64
2019-05-13T12:24:11.557Z,9.66
2019-05-13T12:26:43.098Z,9.70
2019-05-13T12:29:17.906Z,9.69
2019-05-13T12:31:40.711Z,9.63
2019-05-13T12:34:12.767Z,9.64
2019-05-13T12:36:42.937Z,9.54
2019-05-13T12:39:13.977Z,9.46
2019-05-13T12:41:42.778Z,9.62
2019-05-13T12:44:12.714Z,9.80
2019-05-13T12:46:41.507Z,10.08
2019-05-13T12:49:14.360Z,10.32
2019-05-13T12:51:43.867Z,10.60
2019-05-13T12:54:13.693Z,10.89
2019-05-13T12:56:42.536Z,11.04
2019-05-13T12:59:13.129Z,11.24
2019-05-13T13:01:41.515Z,11.04
2019-05-13T13:04:12.205Z,10.89
2019-05-13T13:06:45.096Z,10.64
2019-05-13T13:09:12.660Z,10.66
2019-05-13T13:11:43.475Z,10.48
2019-05-13T13:14:15.089Z,10.25
2019-05-13T13:16:42.450Z,10.06
2019-05-13T13:19:14.520Z,10.07
2019-05-13T13:21:42.129Z,9.87
2019-05-13T13:24:12.414Z,9.78
2019-05-13T13:26:42.861Z,9.70
2019-05-13T13:29:11.363Z,9.74
2019-05-13T13:31:43.268Z,9.80
2019-05-13T13:34:16.449Z,9.84
2019-05-13T13:36:45.234Z,10.00
2019-05-13T13:39:14.970Z,10.16
2019-05-13T13:41:43.661Z,10.14
2019-05-13T13:44:12.250Z,10.32
2019-05-13T13:46:44.524Z,10.58
2019-05-13T13:49:12.919Z,10.98
2019-05-13T13:51:44.500Z,11.26
2019-05-13T13:54:11.742Z,11.58
2019-05-13T13:56:43.900Z,11.74
2019-05-13T13:59:13.927Z,11.78
2019-05-13T14:01:40.683Z,11.79
2019-05-13T14:04:09.106Z,11.39
2019-05-13T14:09:07.742Z,10.60
2019-05-13T14:11:36.460Z,10.34
2019-05-13T14:14:04.931Z,10.39
2019-05-13T14:16:35.313Z,10.37
2019-05-13T14:19:03.944Z,10.54
2019-05-13T14:21:32.626Z,10.69
2019-05-13T14:24:02.675Z,10.80
2019-05-13T14:26:33.014Z,11.29
2019-05-13T14:29:02.617Z,11.86
2019-05-13T14:31:32.325Z,12.23
2019-05-13T14:34:03.653Z,12.38
2019-05-13T14:36:31.513Z,12.31
2019-05-13T14:39:02.629Z,12.55
2019-05-13T14:41:31.287Z,12.63
2019-05-13T14:43:59.780Z,13.10
2019-05-13T14:46:45.746Z,13.24
2019-05-13T14:48:58.295Z,13.33
2019-05-13T14:51:26.686Z,12.95
2019-05-13T14:53:55.090Z,12.35
2019-05-13T14:56:23.481Z,12.14
2019-05-13T14:58:52.317Z,11.82
2019-05-13T15:01:22.737Z,11.63
2019-05-13T15:03:51.989Z,11.39
2019-05-13T15:06:22.029Z,11.36
2019-05-13T15:08:52.718Z,11.22
2019-05-13T15:11:21.954Z,11.22
2019-05-13T15:13:51.859Z,11.29
2019-05-13T15:16:22.372Z,11.33
2019-05-13T15:18:52.479Z,11.58
2019-05-13T15:21:21.393Z,12.00
2019-05-13T15:23:51.739Z,12.52
2019-05-13T15:26:22.059Z,12.40
2019-05-13T15:28:51.910Z,12.31
2019-05-13T15:31:22.043Z,12.35
2019-05-13T15:33:52.440Z,12.71
2019-05-13T15:36:22.533Z,12.83
2019-05-13T15:38:51.979Z,13.10
2019-05-13T15:41:20.598Z,13.02
2019-05-13T15:43:51.259Z,13.25
2019-05-13T15:46:21.810Z,13.45
2019-05-13T15:48:51.471Z,13.61
2019-05-13T15:51:21.992Z,13.26
2019-05-13T15:53:51.717Z,13.61
2019-05-13T15:56:22.439Z,13.68
2019-05-13T15:58:52.602Z,13.91
2019-05-13T16:01:23.007Z,14.09
2019-05-13T16:03:52.400Z,14.03
2019-05-13T16:06:20.703Z,13.89
2019-05-13T16:08:51.622Z,13.72
2019-05-13T16:11:21.720Z,14.05
2019-05-13T16:13:51.751Z,13.88
2019-05-13T16:16:21.892Z,13.56
2019-05-13T16:18:51.382Z,13.22
2019-05-13T16:21:20.403Z,13.30
2019-05-13T16:23:48.783Z,13.51
2019-05-13T16:26:17.179Z,13.79
2019-05-13T16:28:45.566Z,14.05
2019-05-13T16:31:13.964Z,14.17
2019-05-13T16:33:42.351Z,14.09
2019-05-13T16:36:12.749Z,13.74
2019-05-13T16:38:41.702Z,13.25
2019-05-13T16:41:12.442Z,12.89
2019-05-13T16:43:42.615Z,12.52
2019-05-13T16:46:12.167Z,12.20
2019-05-13T16:48:41.587Z,11.91
2019-05-13T16:51:12.578Z,11.91
2019-05-13T16:53:42.097Z,11.82
2019-05-13T16:56:25.291Z,11.71
2019-05-13T16:58:41.859Z,11.57
2019-05-13T17:01:11.887Z,11.54
2019-05-13T17:03:41.406Z,11.39
2019-05-13T17:06:12.469Z,11.12
2019-05-13T17:08:42.229Z,10.93
2019-05-13T17:11:11.853Z,10.85
2019-05-13T17:13:42.223Z,10.74
2019-05-13T17:16:11.161Z,10.65
2019-05-13T17:18:41.661Z,10.92
2019-05-13T17:21:09.660Z,11.08
2019-05-13T17:23:38.043Z,11.60
2019-05-13T17:26:06.444Z,12.02
2019-05-13T17:28:35.100Z,12.52
2019-05-13T17:31:03.679Z,12.76
2019-05-13T17:33:32.144Z,12.83
2019-05-13T17:36:01.881Z,12.86
2019-05-13T17:38:32.445Z,12.52
2019-05-13T17:41:02.226Z,12.19
2019-05-13T17:43:31.964Z,11.75
2019-05-13T17:46:01.022Z,11.40
2019-05-13T17:48:32.797Z,11.13
2019-05-13T17:51:01.340Z,10.92
2019-05-13T17:53:32.254Z,10.74
2019-05-13T17:56:02.268Z,10.63
2019-05-13T17:58:31.436Z,10.42
2019-05-13T18:01:01.703Z,10.32
2019-05-13T18:03:32.149Z,10.30
2019-05-13T18:06:02.350Z,10.13
2019-05-13T18:08:32.076Z,10.10
2019-05-13T18:11:02.262Z,10.04
2019-05-13T18:13:31.525Z,9.95
2019-05-13T18:16:02.567Z,9.87
2019-05-13T18:18:40.398Z,9.75
2019-05-13T18:21:01.484Z,9.59
2019-05-13T18:23:30.466Z,9.41
2019-05-13T18:25:58.855Z,9.32
2019-05-13T18:28:31.271Z,9.20
2019-05-13T18:30:57.643Z,9.09
2019-05-13T18:33:26.342Z,8.98
2019-05-13T18:35:54.726Z,8.86
2019-05-13T18:38:23.131Z,8.73
2019-05-13T18:40:52.605Z,8.58
2019-05-13T18:43:21.650Z,8.44
2019-05-13T18:45:51.847Z,8.24
2019-05-13T18:48:21.834Z,8.14
2019-05-13T18:50:52.339Z,7.95
2019-05-13T18:53:21.617Z,7.76
2019-05-13T18:55:52.452Z,7.56
2019-05-13T18:58:22.251Z,7.33
2019-05-13T19:00:52.282Z,7.15
2019-05-13T19:03:21.731Z,6.90
2019-05-13T19:05:50.391Z,6.67
2019-05-13T19:08:21.274Z,6.46
2019-05-13T19:10:49.229Z,6.25
2019-05-13T19:13:17.931Z,6.05
2019-05-13T19:15:46.327Z,5.86
2019-05-13T19:18:14.726Z,5.75
2019-05-13T19:20:43.114Z,5.64
2019-05-13T19:23:11.933Z,5.56
2019-05-13T19:25:42.644Z,5.46
2019-05-13T19:28:11.851Z,5.37
2019-05-13T19:30:41.174Z,5.31
2019-05-13T19:33:12.148Z,5.27
2019-05-13T19:35:42.536Z,5.18
2019-05-13T19:38:12.135Z,5.08
2019-05-13T19:40:41.935Z,4.94
2019-05-13T19:43:11.599Z,4.91
2019-05-13T19:45:41.638Z,4.86
2019-05-13T19:48:11.856Z,4.82
2019-05-13T19:50:41.588Z,4.75
2019-05-13T19:53:12.150Z,4.68
2019-05-13T19:55:41.446Z,4.65
2019-05-13T19:58:12.210Z,4.60
2019-05-13T20:00:42.499Z,4.51
2019-05-13T20:03:11.897Z,4.34
2019-05-13T20:05:41.514Z,4.26
2019-05-13T20:08:10.605Z,4.22
2019-05-13T20:10:39.082Z,4.24
2019-05-13T20:13:07.476Z,4.27
2019-05-13T20:15:35.882Z,4.27
2019-05-13T20:18:04.560Z,4.27
2019-05-13T20:20:32.967Z,4.27
2019-05-13T20:23:01.723Z,4.28
2019-05-13T20:25:31.184Z,4.29
2019-05-13T20:28:02.396Z,4.27
2019-05-13T20:30:30.632Z,4.22
2019-05-13T20:32:59.087Z,4.22
2019-05-13T20:35:27.502Z,4.17
2019-05-13T20:37:56.222Z,4.09
2019-05-13T20:40:24.693Z,4.01
2019-05-13T20:42:53.076Z,3.94
2019-05-13T20:45:22.495Z,3.94
2019-05-13T20:47:50.933Z,3.92
2019-05-13T20:50:21.813Z,3.89
2019-05-13T20:52:51.613Z,3.84
2019-05-13T20:55:21.961Z,3.83
2019-05-13T20:57:53.087Z,3.76
2019-05-13T21:00:21.212Z,3.70
2019-05-13T21:02:51.698Z,3.66
2019-05-13T21:05:21.820Z,3.60
2019-05-13T21:07:51.558Z,3.56
2019-05-13T21:10:21.160Z,3.54
2019-05-13T21:12:51.441Z,3.53
2019-05-13T21:15:20.223Z,3.55
2019-05-13T21:17:48.615Z,3.55
2019-05-13T21:20:22.226Z,3.55
2019-05-13T21:22:47.737Z,3.55
2019-05-13T21:25:16.628Z,3.51
2019-05-13T21:27:45.348Z,3.51
2019-05-13T21:30:14.076Z,3.56
2019-05-13T21:32:42.544Z,3.58
2019-05-13T21:35:11.956Z,3.59
2019-05-13T21:37:40.441Z,3.60
2019-05-13T21:40:11.155Z,3.51
2019-05-13T21:42:41.894Z,3.40
2019-05-13T21:45:11.227Z,3.35
2019-05-13T21:47:39.807Z,3.34
2019-05-13T21:50:08.536Z,3.32
2019-05-13T21:52:37.237Z,3.27
2019-05-13T21:55:07.818Z,3.28
2019-05-13T21:57:36.310Z,3.26
2019-05-13T22:00:10.757Z,3.20
2019-05-13T22:02:40.684Z,3.13
2019-05-13T22:05:11.504Z,3.11
2019-05-13T22:07:41.919Z,3.00
2019-05-13T22:10:09.870Z,2.95
2019-05-13T22:12:38.275Z,2.91
2019-05-13T22:15:07.100Z,2.91
2019-05-13T22:17:35.502Z,2.84
2019-05-13T22:20:07.870Z,2.92
2019-05-13T22:22:36.283Z,2.95
2019-05-13T22:25:07.012Z,3.04
2019-05-13T22:27:35.405Z,3.12
2019-05-13T22:30:05.880Z,3.12
2019-05-13T22:32:34.282Z,3.13
2019-05-13T22:35:02.676Z,3.17
2019-05-13T22:37:31.364Z,3.08
2019-05-13T22:40:01.575Z,3.09
2019-05-13T22:42:32.180Z,3.06
2019-05-13T22:45:02.594Z,3.01
2019-05-13T22:47:31.521Z,2.98
2019-05-13T22:50:02.038Z,2.98
2019-05-13T22:52:31.260Z,3.02
2019-05-13T22:55:02.281Z,3.03
2019-05-13T22:57:31.330Z,3.03
2019-05-13T22:59:59.866Z,3.03
2019-05-13T23:02:28.407Z,3.04
2019-05-13T23:04:57.211Z,3.00
2019-05-13T23:07:25.615Z,2.98
2019-05-13T23:09:54.010Z,2.93
2019-05-13T23:12:22.776Z,2.92
2019-05-13T23:14:52.066Z,2.91
2019-05-13T23:17:21.604Z,2.88
2019-05-13T23:19:52.154Z,2.85
2019-05-13T23:22:20.479Z,2.82
2019-05-13T23:24:49.166Z,2.80
2019-05-13T23:27:17.571Z,2.74
2019-05-13T23:29:45.949Z,2.72
2019-05-13T23:32:14.360Z,2.76
2019-05-13T23:34:42.742Z,2.88
2019-05-13T23:37:11.609Z,2.98
2019-05-13T23:39:41.630Z,3.23
2019-05-13T23:42:12.168Z,3.47
2019-05-13T23:44:41.505Z,3.44
2019-05-13T23:47:11.418Z,3.49
2019-05-13T23:49:42.222Z,3.47
2019-05-13T23:52:11.708Z,3.48
2019-05-13T23:54:42.511Z,3.47
2019-05-13T23:57:11.822Z,3.45
2019-05-13T23:59:42.020Z,3.45
